sensor_id;sensor_type;location;lat;lon;timestamp;temperature;humidity
14850;DHT22;7517;48.400;11.770;2023-02-28T00:01:27;4.80;58.40
14850;DHT22;7517;48.400;11.770;2023-02-28T00:03:55;4.70;58.30
14850;DHT22;7517;48.400;11.770;2023-02-28T00:06:23;4.70;58.30
14850;DHT22;7517;48.400;11.770;2023-02-28T00:08:50;4.70;58.40
14850;DHT22;7517;48.400;11.770;2023-02-28T00:11:19;4.70;58.40
14850;DHT22;7517;48.400;11.770;2023-02-28T00:13:48;4.70;58.40
14850;DHT22;7517;48.400;11.770;2023-02-28T00:16:17;4.70;58.30
14850;DHT22;7517;48.400;11.770;2023-02-28T00:18:46;4.60;58.20
14850;DHT22;7517;48.400;11.770;2023-02-28T00:21:14;4.60;58.20
14850;DHT22;7517;48.400;11.770;2023-02-28T00:23:42;4.70;58.20
14850;DHT22;7517;48.400;11.770;2023-02-28T00:26:10;4.60;58.20
14850;DHT22;7517;48.400;11.770;2023-02-28T00:28:40;4.60;58.30
14850;DHT22;7517;48.400;11.770;2023-02-28T00:31:07;4.60;58.30
14850;DHT22;7517;48.400;11.770;2023-02-28T00:33:34;4.50;58.40
14850;DHT22;7517;48.400;11.770;2023-02-28T00:36:07;4.50;58.30
14850;DHT22;7517;48.400;11.770;2023-02-28T00:38:36;4.50;58.30
14850;DHT22;7517;48.400;11.770;2023-02-28T00:41:04;4.50;58.30
14850;DHT22;7517;48.400;11.770;2023-02-28T00:43:32;4.40;58.20
14850;DHT22;7517;48.400;11.770;2023-02-28T00:46:04;4.40;58.30
14850;DHT22;7517;48.400;11.770;2023-02-28T00:48:33;4.40;58.30
14850;DHT22;7517;48.400;11.770;2023-02-28T00:51:03;4.30;58.40
14850;DHT22;7517;48.400;11.770;2023-02-28T00:53:31;4.30;58.40
14850;DHT22;7517;48.400;11.770;2023-02-28T00:55:59;4.30;58.50
14850;DHT22;7517;48.400;11.770;2023-02-28T00:58:27;4.30;58.50
14850;DHT22;7517;48.400;11.770;2023-02-28T01:00:55;4.20;58.50
14850;DHT22;7517;48.400;11.770;2023-02-28T01:03:24;4.20;58.60
14850;DHT22;7517;48.400;11.770;2023-02-28T01:05:53;4.20;58.60
14850;DHT22;7517;48.400;11.770;2023-02-28T01:08:21;4.20;58.60
14850;DHT22;7517;48.400;11.770;2023-02-28T01:10:48;4.20;58.60
14850;DHT22;7517;48.400;11.770;2023-02-28T01:13:16;4.20;58.70
14850;DHT22;7517;48.400;11.770;2023-02-28T01:15:46;4.20;58.70
14850;DHT22;7517;48.400;11.770;2023-02-28T01:18:16;4.10;58.70
14850;DHT22;7517;48.400;11.770;2023-02-28T01:20:45;4.10;58.60
14850;DHT22;7517;48.400;11.770;2023-02-28T01:23:14;4.10;58.70
14850;DHT22;7517;48.400;11.770;2023-02-28T01:25:42;4.10;58.70
14850;DHT22;7517;48.400;11.770;2023-02-28T01:28:09;4.10;58.80
14850;DHT22;7517;48.400;11.770;2023-02-28T01:30:37;4.10;58.90
14850;DHT22;7517;48.400;11.770;2023-02-28T01:33:04;4.10;59.00
14850;DHT22;7517;48.400;11.770;2023-02-28T01:35:32;4.10;59.10
14850;DHT22;7517;48.400;11.770;2023-02-28T01:38:02;4.10;59.10
14850;DHT22;7517;48.400;11.770;2023-02-28T01:40:29;4.10;59.00
14850;DHT22;7517;48.400;11.770;2023-02-28T01:42:57;4.10;59.10
14850;DHT22;7517;48.400;11.770;2023-02-28T01:45:27;4.10;59.00
14850;DHT22;7517;48.400;11.770;2023-02-28T01:47:58;4.10;59.00
14850;DHT22;7517;48.400;11.770;2023-02-28T01:50:34;4.10;59.10
14850;DHT22;7517;48.400;11.770;2023-02-28T01:53:11;4.10;59.10
14850;DHT22;7517;48.400;11.770;2023-02-28T01:55:46;4.10;59.60
14850;DHT22;7517;48.400;11.770;2023-02-28T01:58:16;4.10;59.10
14850;DHT22;7517;48.400;11.770;2023-02-28T02:00:44;4.00;59.00
14850;DHT22;7517;48.400;11.770;2023-02-28T02:03:14;4.00;59.00
14850;DHT22;7517;48.400;11.770;2023-02-28T02:05:45;4.00;59.10
14850;DHT22;7517;48.400;11.770;2023-02-28T02:08:18;4.00;59.10
14850;DHT22;7517;48.400;11.770;2023-02-28T02:10:50;4.00;59.00
14850;DHT22;7517;48.400;11.770;2023-02-28T02:16:28;4.00;59.00
14850;DHT22;7517;48.400;11.770;2023-02-28T02:19:18;3.90;59.00
14850;DHT22;7517;48.400;11.770;2023-02-28T02:22:33;3.90;59.00
14850;DHT22;7517;48.400;11.770;2023-02-28T02:25:22;3.90;59.00
14850;DHT22;7517;48.400;11.770;2023-02-28T02:31:26;3.90;59.40
14850;DHT22;7517;48.400;11.770;2023-02-28T02:34:21;3.80;59.50
14850;DHT22;7517;48.400;11.770;2023-02-28T02:37:15;3.80;59.50
14850;DHT22;7517;48.400;11.770;2023-02-28T02:39:53;3.80;59.40
14850;DHT22;7517;48.400;11.770;2023-02-28T02:42:31;3.80;59.40
14850;DHT22;7517;48.400;11.770;2023-02-28T02:45:09;3.80;59.40
14850;DHT22;7517;48.400;11.770;2023-02-28T02:47:41;3.70;59.40
14850;DHT22;7517;48.400;11.770;2023-02-28T02:50:16;3.70;59.40
14850;DHT22;7517;48.400;11.770;2023-02-28T02:52:52;3.70;59.50
14850;DHT22;7517;48.400;11.770;2023-02-28T02:55:23;3.70;59.50
14850;DHT22;7517;48.400;11.770;2023-02-28T02:57:53;3.70;59.50
14850;DHT22;7517;48.400;11.770;2023-02-28T03:00:27;3.60;59.50
14850;DHT22;7517;48.400;11.770;2023-02-28T03:03:01;3.60;59.50
14850;DHT22;7517;48.400;11.770;2023-02-28T03:05:35;3.60;59.70
14850;DHT22;7517;48.400;11.770;2023-02-28T03:08:08;3.60;59.80
14850;DHT22;7517;48.400;11.770;2023-02-28T03:10:39;3.60;59.90
14850;DHT22;7517;48.400;11.770;2023-02-28T03:16:52;3.60;60.00
14850;DHT22;7517;48.400;11.770;2023-02-28T03:19:37;3.60;60.10
14850;DHT22;7517;48.400;11.770;2023-02-28T03:22:38;3.60;60.20
14850;DHT22;7517;48.400;11.770;2023-02-28T03:25:18;3.60;60.30
14850;DHT22;7517;48.400;11.770;2023-02-28T03:28:05;3.60;60.40
14850;DHT22;7517;48.400;11.770;2023-02-28T03:30:45;3.60;60.30
14850;DHT22;7517;48.400;11.770;2023-02-28T03:33:20;3.60;60.50
14850;DHT22;7517;48.400;11.770;2023-02-28T03:35:53;3.70;60.60
14850;DHT22;7517;48.400;11.770;2023-02-28T03:38:29;3.70;60.60
14850;DHT22;7517;48.400;11.770;2023-02-28T03:41:06;3.70;60.70
14850;DHT22;7517;48.400;11.770;2023-02-28T03:43:40;3.80;60.90
14850;DHT22;7517;48.400;11.770;2023-02-28T03:46:14;3.80;60.80
14850;DHT22;7517;48.400;11.770;2023-02-28T03:48:51;3.80;60.60
14850;DHT22;7517;48.400;11.770;2023-02-28T03:51:24;3.80;60.60
14850;DHT22;7517;48.400;11.770;2023-02-28T03:53:58;3.80;60.60
14850;DHT22;7517;48.400;11.770;2023-02-28T03:56:33;3.90;60.70
14850;DHT22;7517;48.400;11.770;2023-02-28T03:59:07;3.90;60.60
14850;DHT22;7517;48.400;11.770;2023-02-28T04:01:42;3.90;60.70
14850;DHT22;7517;48.400;11.770;2023-02-28T04:04:11;3.90;60.70
14850;DHT22;7517;48.400;11.770;2023-02-28T04:06:41;3.90;60.70
14850;DHT22;7517;48.400;11.770;2023-02-28T04:09:14;3.90;60.60
14850;DHT22;7517;48.400;11.770;2023-02-28T04:11:43;3.90;60.60
14850;DHT22;7517;48.400;11.770;2023-02-28T04:14:12;4.00;60.50
14850;DHT22;7517;48.400;11.770;2023-02-28T04:16:41;4.00;60.50
14850;DHT22;7517;48.400;11.770;2023-02-28T04:19:10;4.00;60.50
14850;DHT22;7517;48.400;11.770;2023-02-28T04:21:40;4.00;60.40
14850;DHT22;7517;48.400;11.770;2023-02-28T04:24:12;4.00;60.40
14850;DHT22;7517;48.400;11.770;2023-02-28T04:26:43;4.00;60.30
14850;DHT22;7517;48.400;11.770;2023-02-28T04:29:13;4.00;60.20
14850;DHT22;7517;48.400;11.770;2023-02-28T04:31:46;4.00;60.30
14850;DHT22;7517;48.400;11.770;2023-02-28T04:34:14;4.00;60.40
14850;DHT22;7517;48.400;11.770;2023-02-28T04:36:42;4.00;61.20
14850;DHT22;7517;48.400;11.770;2023-02-28T04:39:12;4.00;60.40
14850;DHT22;7517;48.400;11.770;2023-02-28T04:41:40;4.00;60.40
14850;DHT22;7517;48.400;11.770;2023-02-28T04:44:07;4.00;60.40
14850;DHT22;7517;48.400;11.770;2023-02-28T04:46:35;4.00;60.30
14850;DHT22;7517;48.400;11.770;2023-02-28T04:49:02;4.10;60.50
14850;DHT22;7517;48.400;11.770;2023-02-28T04:51:30;4.00;60.30
14850;DHT22;7517;48.400;11.770;2023-02-28T04:53:59;4.00;60.30
14850;DHT22;7517;48.400;11.770;2023-02-28T04:56:27;4.00;60.30
14850;DHT22;7517;48.400;11.770;2023-02-28T04:58:55;4.00;60.20
14850;DHT22;7517;48.400;11.770;2023-02-28T05:01:24;4.00;60.20
14850;DHT22;7517;48.400;11.770;2023-02-28T05:03:54;4.00;60.20
14850;DHT22;7517;48.400;11.770;2023-02-28T05:06:25;4.00;60.20
14850;DHT22;7517;48.400;11.770;2023-02-28T05:08:53;4.00;60.10
14850;DHT22;7517;48.400;11.770;2023-02-28T05:11:24;4.00;60.20
14850;DHT22;7517;48.400;11.770;2023-02-28T05:13:59;4.00;60.90
14850;DHT22;7517;48.400;11.770;2023-02-28T05:16:27;4.00;60.10
14850;DHT22;7517;48.400;11.770;2023-02-28T05:18:55;4.00;60.00
14850;DHT22;7517;48.400;11.770;2023-02-28T05:21:26;3.90;60.00
14850;DHT22;7517;48.400;11.770;2023-02-28T05:23:57;3.90;60.00
14850;DHT22;7517;48.400;11.770;2023-02-28T05:26:28;3.90;60.10
14850;DHT22;7517;48.400;11.770;2023-02-28T05:28:56;3.90;60.30
14850;DHT22;7517;48.400;11.770;2023-02-28T05:31:23;3.90;60.40
14850;DHT22;7517;48.400;11.770;2023-02-28T05:33:51;3.90;60.50
14850;DHT22;7517;48.400;11.770;2023-02-28T05:36:18;3.90;60.50
14850;DHT22;7517;48.400;11.770;2023-02-28T05:38:48;3.80;60.30
14850;DHT22;7517;48.400;11.770;2023-02-28T05:41:17;3.80;60.30
14850;DHT22;7517;48.400;11.770;2023-02-28T05:43:48;3.80;60.30
14850;DHT22;7517;48.400;11.770;2023-02-28T05:46:15;3.80;60.30
14850;DHT22;7517;48.400;11.770;2023-02-28T05:48:46;3.80;60.40
14850;DHT22;7517;48.400;11.770;2023-02-28T05:51:15;3.80;60.40
14850;DHT22;7517;48.400;11.770;2023-02-28T05:53:43;3.80;60.30
14850;DHT22;7517;48.400;11.770;2023-02-28T05:56:11;3.80;60.30
14850;DHT22;7517;48.400;11.770;2023-02-28T05:58:39;3.80;60.40
14850;DHT22;7517;48.400;11.770;2023-02-28T06:01:32;3.70;60.30
14850;DHT22;7517;48.400;11.770;2023-02-28T06:04:02;3.80;60.30
14850;DHT22;7517;48.400;11.770;2023-02-28T06:06:31;3.70;60.30
14850;DHT22;7517;48.400;11.770;2023-02-28T06:09:02;3.70;60.40
14850;DHT22;7517;48.400;11.770;2023-02-28T06:11:30;3.70;60.50
14850;DHT22;7517;48.400;11.770;2023-02-28T06:13:59;3.70;60.30
14850;DHT22;7517;48.400;11.770;2023-02-28T06:16:30;3.70;60.30
14850;DHT22;7517;48.400;11.770;2023-02-28T06:19:00;3.70;60.30
14850;DHT22;7517;48.400;11.770;2023-02-28T06:21:29;3.70;60.30
14850;DHT22;7517;48.400;11.770;2023-02-28T06:23:58;3.70;60.30
14850;DHT22;7517;48.400;11.770;2023-02-28T06:26:25;3.70;60.40
14850;DHT22;7517;48.400;11.770;2023-02-28T06:28:53;3.70;60.50
14850;DHT22;7517;48.400;11.770;2023-02-28T06:31:21;3.70;60.60
14850;DHT22;7517;48.400;11.770;2023-02-28T06:33:51;3.70;60.60
14850;DHT22;7517;48.400;11.770;2023-02-28T06:36:19;3.70;61.40
14850;DHT22;7517;48.400;11.770;2023-02-28T06:38:46;3.70;60.50
14850;DHT22;7517;48.400;11.770;2023-02-28T06:41:17;3.70;60.40
14850;DHT22;7517;48.400;11.770;2023-02-28T06:43:44;3.70;60.30
14850;DHT22;7517;48.400;11.770;2023-02-28T06:46:13;3.70;60.30
14850;DHT22;7517;48.400;11.770;2023-02-28T06:48:43;3.70;60.30
14850;DHT22;7517;48.400;11.770;2023-02-28T06:51:14;3.80;60.40
14850;DHT22;7517;48.400;11.770;2023-02-28T06:53:43;3.80;60.30
14850;DHT22;7517;48.400;11.770;2023-02-28T06:56:12;3.80;60.30
14850;DHT22;7517;48.400;11.770;2023-02-28T06:58:41;3.80;60.70
14850;DHT22;7517;48.400;11.770;2023-02-28T07:01:09;3.80;60.30
14850;DHT22;7517;48.400;11.770;2023-02-28T07:03:37;3.80;60.30
14850;DHT22;7517;48.400;11.770;2023-02-28T07:06:05;3.80;60.40
14850;DHT22;7517;48.400;11.770;2023-02-28T07:08:34;3.80;60.40
14850;DHT22;7517;48.400;11.770;2023-02-28T07:11:04;3.90;60.40
14850;DHT22;7517;48.400;11.770;2023-02-28T07:13:33;3.80;61.00
14850;DHT22;7517;48.400;11.770;2023-02-28T07:16:03;3.80;60.40
14850;DHT22;7517;48.400;11.770;2023-02-28T07:18:34;3.80;60.40
14850;DHT22;7517;48.400;11.770;2023-02-28T07:21:03;3.90;60.50
14850;DHT22;7517;48.400;11.770;2023-02-28T07:23:34;3.90;60.40
14850;DHT22;7517;48.400;11.770;2023-02-28T07:26:04;3.90;60.50
14850;DHT22;7517;48.400;11.770;2023-02-28T07:28:31;3.90;60.50
14850;DHT22;7517;48.400;11.770;2023-02-28T07:31:03;3.90;60.50
14850;DHT22;7517;48.400;11.770;2023-02-28T07:33:31;4.00;60.50
14850;DHT22;7517;48.400;11.770;2023-02-28T07:36:03;4.00;60.50
14850;DHT22;7517;48.400;11.770;2023-02-28T07:38:35;4.00;60.50
14850;DHT22;7517;48.400;11.770;2023-02-28T07:41:03;4.20;60.50
14850;DHT22;7517;48.400;11.770;2023-02-28T07:43:31;4.10;60.50
14850;DHT22;7517;48.400;11.770;2023-02-28T07:46:02;4.10;60.50
14850;DHT22;7517;48.400;11.770;2023-02-28T07:48:31;4.20;60.40
14850;DHT22;7517;48.400;11.770;2023-02-28T07:50:59;4.20;60.50
14850;DHT22;7517;48.400;11.770;2023-02-28T07:53:28;4.20;60.40
14850;DHT22;7517;48.400;11.770;2023-02-28T07:55:59;4.30;60.30
14850;DHT22;7517;48.400;11.770;2023-02-28T07:58:28;4.30;60.30
14850;DHT22;7517;48.400;11.770;2023-02-28T08:00:57;4.40;60.20
14850;DHT22;7517;48.400;11.770;2023-02-28T08:03:31;4.40;60.40
14850;DHT22;7517;48.400;11.770;2023-02-28T08:05:58;4.40;60.40
14850;DHT22;7517;48.400;11.770;2023-02-28T08:08:26;4.50;60.30
14850;DHT22;7517;48.400;11.770;2023-02-28T08:10:59;4.60;60.30
14850;DHT22;7517;48.400;11.770;2023-02-28T08:13:29;4.60;60.40
14850;DHT22;7517;48.400;11.770;2023-02-28T08:15:57;4.70;60.50
14850;DHT22;7517;48.400;11.770;2023-02-28T08:18:25;4.80;60.50
14850;DHT22;7517;48.400;11.770;2023-02-28T08:20:52;4.90;60.30
14850;DHT22;7517;48.400;11.770;2023-02-28T08:23:19;5.00;60.30
14850;DHT22;7517;48.400;11.770;2023-02-28T08:25:53;5.10;60.30
14850;DHT22;7517;48.400;11.770;2023-02-28T08:28:23;5.20;60.00
14850;DHT22;7517;48.400;11.770;2023-02-28T08:30:50;5.30;60.10
14850;DHT22;7517;48.400;11.770;2023-02-28T08:33:17;5.40;60.00
14850;DHT22;7517;48.400;11.770;2023-02-28T08:35:45;5.50;59.90
14850;DHT22;7517;48.400;11.770;2023-02-28T08:38:12;5.60;59.90
14850;DHT22;7517;48.400;11.770;2023-02-28T08:40:39;5.80;59.60
14850;DHT22;7517;48.400;11.770;2023-02-28T08:43:08;5.90;59.60
14850;DHT22;7517;48.400;11.770;2023-02-28T08:45:37;6.00;59.60
14850;DHT22;7517;48.400;11.770;2023-02-28T08:48:05;6.10;59.40
14850;DHT22;7517;48.400;11.770;2023-02-28T08:50:32;6.20;59.50
14850;DHT22;7517;48.400;11.770;2023-02-28T08:53:00;6.30;59.30
14850;DHT22;7517;48.400;11.770;2023-02-28T08:55:28;6.50;59.40
14850;DHT22;7517;48.400;11.770;2023-02-28T08:57:56;6.60;59.40
14850;DHT22;7517;48.400;11.770;2023-02-28T09:00:23;6.70;59.20
14850;DHT22;7517;48.400;11.770;2023-02-28T09:02:52;6.80;59.10
14850;DHT22;7517;48.400;11.770;2023-02-28T09:05:20;7.00;59.10
14850;DHT22;7517;48.400;11.770;2023-02-28T09:07:49;7.10;59.10
14850;DHT22;7517;48.400;11.770;2023-02-28T09:10:16;7.20;58.90
14850;DHT22;7517;48.400;11.770;2023-02-28T09:12:44;7.40;58.90
14850;DHT22;7517;48.400;11.770;2023-02-28T09:15:12;7.50;58.60
14850;DHT22;7517;48.400;11.770;2023-02-28T09:17:39;7.60;58.40
14850;DHT22;7517;48.400;11.770;2023-02-28T09:20:11;7.70;58.50
14850;DHT22;7517;48.400;11.770;2023-02-28T09:22:39;7.90;58.50
14850;DHT22;7517;48.400;11.770;2023-02-28T09:25:07;8.00;58.50
14850;DHT22;7517;48.400;11.770;2023-02-28T09:27:35;8.10;58.30
14850;DHT22;7517;48.400;11.770;2023-02-28T09:30:03;8.30;58.30
14850;DHT22;7517;48.400;11.770;2023-02-28T09:32:31;8.40;58.10
14850;DHT22;7517;48.400;11.770;2023-02-28T09:34:59;8.50;58.00
14850;DHT22;7517;48.400;11.770;2023-02-28T09:37:27;8.60;57.70
14850;DHT22;7517;48.400;11.770;2023-02-28T09:39:58;8.70;57.80
14850;DHT22;7517;48.400;11.770;2023-02-28T09:42:29;8.70;57.60
14850;DHT22;7517;48.400;11.770;2023-02-28T09:45:02;8.80;57.20
14850;DHT22;7517;48.400;11.770;2023-02-28T09:47:40;8.90;57.30
14850;DHT22;7517;48.400;11.770;2023-02-28T09:50:18;9.00;57.30
14850;DHT22;7517;48.400;11.770;2023-02-28T09:52:57;9.10;56.90
14850;DHT22;7517;48.400;11.770;2023-02-28T09:55:29;9.20;57.80
14850;DHT22;7517;48.400;11.770;2023-02-28T09:58:00;9.30;57.00
14850;DHT22;7517;48.400;11.770;2023-02-28T10:00:32;9.30;56.80
14850;DHT22;7517;48.400;11.770;2023-02-28T10:03:20;9.50;56.70
14850;DHT22;7517;48.400;11.770;2023-02-28T10:05:59;9.60;56.90
14850;DHT22;7517;48.400;11.770;2023-02-28T10:08:37;9.70;57.60
14850;DHT22;7517;48.400;11.770;2023-02-28T10:11:14;10.00;57.80
14850;DHT22;7517;48.400;11.770;2023-02-28T10:13:50;10.20;58.00
14850;DHT22;7517;48.400;11.770;2023-02-28T10:16:25;10.30;57.70
14850;DHT22;7517;48.400;11.770;2023-02-28T10:19:03;10.50;57.80
14850;DHT22;7517;48.400;11.770;2023-02-28T10:21:36;10.80;57.90
14850;DHT22;7517;48.400;11.770;2023-02-28T10:24:20;11.00;57.90
14850;DHT22;7517;48.400;11.770;2023-02-28T10:26:58;11.20;57.30
14850;DHT22;7517;48.400;11.770;2023-02-28T10:29:28;11.40;57.30
14850;DHT22;7517;48.400;11.770;2023-02-28T10:32:01;11.50;56.60
14850;DHT22;7517;48.400;11.770;2023-02-28T10:34:30;11.60;55.70
14850;DHT22;7517;48.400;11.770;2023-02-28T10:36:58;11.60;55.70
14850;DHT22;7517;48.400;11.770;2023-02-28T10:39:40;11.60;55.50
14850;DHT22;7517;48.400;11.770;2023-02-28T10:42:23;11.60;54.90
14850;DHT22;7517;48.400;11.770;2023-02-28T10:45:11;11.60;54.80
14850;DHT22;7517;48.400;11.770;2023-02-28T10:47:49;11.60;54.70
14850;DHT22;7517;48.400;11.770;2023-02-28T10:50:34;11.70;55.30
14850;DHT22;7517;48.400;11.770;2023-02-28T10:53:28;11.70;54.50
14850;DHT22;7517;48.400;11.770;2023-02-28T10:56:01;11.70;54.10
14850;DHT22;7517;48.400;11.770;2023-02-28T10:58:32;11.70;54.70
14850;DHT22;7517;48.400;11.770;2023-02-28T11:01:15;11.70;54.30
14850;DHT22;7517;48.400;11.770;2023-02-28T11:03:45;11.70;54.40
14850;DHT22;7517;48.400;11.770;2023-02-28T11:06:16;11.70;54.30
14850;DHT22;7517;48.400;11.770;2023-02-28T11:08:51;11.60;54.00
14850;DHT22;7517;48.400;11.770;2023-02-28T11:11:27;11.60;53.70
14850;DHT22;7517;48.400;11.770;2023-02-28T11:14:03;11.50;53.60
14850;DHT22;7517;48.400;11.770;2023-02-28T11:16:35;11.40;53.70
14850;DHT22;7517;48.400;11.770;2023-02-28T11:19:07;11.30;53.60
14850;DHT22;7517;48.400;11.770;2023-02-28T11:21:52;11.30;53.90
14850;DHT22;7517;48.400;11.770;2023-02-28T11:24:25;11.20;53.90
14850;DHT22;7517;48.400;11.770;2023-02-28T11:26:56;11.10;53.80
14850;DHT22;7517;48.400;11.770;2023-02-28T11:29:26;11.00;53.80
14850;DHT22;7517;48.400;11.770;2023-02-28T11:32:15;10.90;53.50
14850;DHT22;7517;48.400;11.770;2023-02-28T11:34:46;10.80;53.00
14850;DHT22;7517;48.400;11.770;2023-02-28T11:37:28;10.70;53.70
14850;DHT22;7517;48.400;11.770;2023-02-28T11:39:57;10.60;53.60
14850;DHT22;7517;48.400;11.770;2023-02-28T11:42:35;10.50;53.80
14850;DHT22;7517;48.400;11.770;2023-02-28T11:45:37;10.40;53.70
14850;DHT22;7517;48.400;11.770;2023-02-28T11:48:16;10.40;53.80
14850;DHT22;7517;48.400;11.770;2023-02-28T11:51:00;10.30;54.10
14850;DHT22;7517;48.400;11.770;2023-02-28T11:56:47;10.20;53.90
14850;DHT22;7517;48.400;11.770;2023-02-28T12:02:29;10.20;54.20
14850;DHT22;7517;48.400;11.770;2023-02-28T12:05:20;10.10;54.90
14850;DHT22;7517;48.400;11.770;2023-02-28T12:08:04;10.10;54.60
14850;DHT22;7517;48.400;11.770;2023-02-28T12:10:48;10.20;54.70
14850;DHT22;7517;48.400;11.770;2023-02-28T12:13:29;10.20;54.90
14850;DHT22;7517;48.400;11.770;2023-02-28T12:19:28;10.20;54.50
14850;DHT22;7517;48.400;11.770;2023-02-28T12:22:28;10.20;55.10
14850;DHT22;7517;48.400;11.770;2023-02-28T12:25:24;10.20;54.60
14850;DHT22;7517;48.400;11.770;2023-02-28T12:28:14;10.20;54.70
14850;DHT22;7517;48.400;11.770;2023-02-28T12:30:49;10.20;54.80
14850;DHT22;7517;48.400;11.770;2023-02-28T12:33:24;10.20;54.70
14850;DHT22;7517;48.400;11.770;2023-02-28T12:35:58;10.20;54.90
14850;DHT22;7517;48.400;11.770;2023-02-28T12:38:31;10.20;54.80
14850;DHT22;7517;48.400;11.770;2023-02-28T12:41:04;10.20;54.90
14850;DHT22;7517;48.400;11.770;2023-02-28T12:43:38;10.30;54.80
14850;DHT22;7517;48.400;11.770;2023-02-28T12:46:12;10.30;54.70
14850;DHT22;7517;48.400;11.770;2023-02-28T12:48:47;10.30;54.60
14850;DHT22;7517;48.400;11.770;2023-02-28T12:51:20;10.40;54.80
14850;DHT22;7517;48.400;11.770;2023-02-28T12:53:54;10.40;54.50
14850;DHT22;7517;48.400;11.770;2023-02-28T12:56:35;10.40;54.20
14850;DHT22;7517;48.400;11.770;2023-02-28T12:59:15;10.40;54.10
14850;DHT22;7517;48.400;11.770;2023-02-28T13:05:29;10.40;54.20
14850;DHT22;7517;48.400;11.770;2023-02-28T13:08:27;10.50;53.90
14850;DHT22;7517;48.400;11.770;2023-02-28T13:11:28;10.50;54.60
14850;DHT22;7517;48.400;11.770;2023-02-28T13:13:59;10.50;54.30
14850;DHT22;7517;48.400;11.770;2023-02-28T13:16:54;10.50;54.20
14850;DHT22;7517;48.400;11.770;2023-02-28T13:19:26;10.50;53.70
14850;DHT22;7517;48.400;11.770;2023-02-28T13:21:56;10.50;54.40
14850;DHT22;7517;48.400;11.770;2023-02-28T13:24:55;10.50;54.20
14850;DHT22;7517;48.400;11.770;2023-02-28T13:27:36;10.60;53.50
14850;DHT22;7517;48.400;11.770;2023-02-28T13:33:30;10.60;53.90
14850;DHT22;7517;48.400;11.770;2023-02-28T13:36:12;10.60;54.30
14850;DHT22;7517;48.400;11.770;2023-02-28T13:38:52;10.60;54.00
14850;DHT22;7517;48.400;11.770;2023-02-28T13:44:19;10.70;53.70
14850;DHT22;7517;48.400;11.770;2023-02-28T13:47:25;10.70;54.30
14850;DHT22;7517;48.400;11.770;2023-02-28T13:50:24;10.70;53.80
14850;DHT22;7517;48.400;11.770;2023-02-28T13:56:00;10.70;54.10
14850;DHT22;7517;48.400;11.770;2023-02-28T13:58:43;10.70;54.20
14850;DHT22;7517;48.400;11.770;2023-02-28T14:01:30;10.80;54.00
14850;DHT22;7517;48.400;11.770;2023-02-28T14:07:23;10.80;53.80
14850;DHT22;7517;48.400;11.770;2023-02-28T14:09:58;10.80;54.20
14850;DHT22;7517;48.400;11.770;2023-02-28T14:12:53;10.80;54.10
14850;DHT22;7517;48.400;11.770;2023-02-28T14:18:29;10.80;53.90
14850;DHT22;7517;48.400;11.770;2023-02-28T14:21:09;10.80;54.00
14850;DHT22;7517;48.400;11.770;2023-02-28T14:27:37;10.80;53.60
14850;DHT22;7517;48.400;11.770;2023-02-28T14:33:46;10.80;53.50
14850;DHT22;7517;48.400;11.770;2023-02-28T14:36:27;10.70;53.40
14850;DHT22;7517;48.400;11.770;2023-02-28T14:39:01;10.70;54.00
14850;DHT22;7517;48.400;11.770;2023-02-28T14:41:34;10.70;54.60
14850;DHT22;7517;48.400;11.770;2023-02-28T14:44:14;10.70;54.20
14850;DHT22;7517;48.400;11.770;2023-02-28T14:46:44;10.70;53.60
14850;DHT22;7517;48.400;11.770;2023-02-28T14:49:19;10.60;54.00
14850;DHT22;7517;48.400;11.770;2023-02-28T14:51:49;10.60;53.60
14850;DHT22;7517;48.400;11.770;2023-02-28T14:54:31;10.60;53.90
14850;DHT22;7517;48.400;11.770;2023-02-28T14:57:00;10.50;53.80
14850;DHT22;7517;48.400;11.770;2023-02-28T14:59:29;10.50;53.90
14850;DHT22;7517;48.400;11.770;2023-02-28T15:02:21;10.50;53.70
14850;DHT22;7517;48.400;11.770;2023-02-28T15:04:59;10.50;53.60
14850;DHT22;7517;48.400;11.770;2023-02-28T15:07:27;10.50;53.90
14850;DHT22;7517;48.400;11.770;2023-02-28T15:10:16;10.50;54.10
14850;DHT22;7517;48.400;11.770;2023-02-28T15:12:52;10.50;53.70
14850;DHT22;7517;48.400;11.770;2023-02-28T15:15:22;10.50;54.00
14850;DHT22;7517;48.400;11.770;2023-02-28T15:17:56;10.50;54.20
14850;DHT22;7517;48.400;11.770;2023-02-28T15:20:28;10.50;54.20
14850;DHT22;7517;48.400;11.770;2023-02-28T15:22:57;10.50;54.10
14850;DHT22;7517;48.400;11.770;2023-02-28T15:25:25;10.50;54.00
14850;DHT22;7517;48.400;11.770;2023-02-28T15:27:55;10.50;54.20
14850;DHT22;7517;48.400;11.770;2023-02-28T15:30:26;11.00;54.40
14850;DHT22;7517;48.400;11.770;2023-02-28T15:33:15;10.50;54.20
14850;DHT22;7517;48.400;11.770;2023-02-28T15:35:47;10.50;53.80
14850;DHT22;7517;48.400;11.770;2023-02-28T15:38:21;10.50;54.20
14850;DHT22;7517;48.400;11.770;2023-02-28T15:40:51;10.50;54.20
14850;DHT22;7517;48.400;11.770;2023-02-28T15:43:25;10.50;54.10
14850;DHT22;7517;48.400;11.770;2023-02-28T15:45:57;10.50;54.00
14850;DHT22;7517;48.400;11.770;2023-02-28T15:48:28;10.50;53.90
14850;DHT22;7517;48.400;11.770;2023-02-28T15:51:06;10.40;53.70
14850;DHT22;7517;48.400;11.770;2023-02-28T15:53:47;10.40;53.50
14850;DHT22;7517;48.400;11.770;2023-02-28T15:56:22;10.40;53.70
14850;DHT22;7517;48.400;11.770;2023-02-28T15:58:53;10.40;53.50
14850;DHT22;7517;48.400;11.770;2023-02-28T16:01:26;10.30;53.60
14850;DHT22;7517;48.400;11.770;2023-02-28T16:03:58;10.30;53.60
14850;DHT22;7517;48.400;11.770;2023-02-28T16:06:37;10.20;53.60
14850;DHT22;7517;48.400;11.770;2023-02-28T16:09:11;10.20;53.50
14850;DHT22;7517;48.400;11.770;2023-02-28T16:11:42;10.20;53.80
14850;DHT22;7517;48.400;11.770;2023-02-28T16:14:15;10.10;53.70
14850;DHT22;7517;48.400;11.770;2023-02-28T16:16:45;10.10;53.70
14850;DHT22;7517;48.400;11.770;2023-02-28T16:19:14;10.00;53.80
14850;DHT22;7517;48.400;11.770;2023-02-28T16:21:43;10.00;53.70
14850;DHT22;7517;48.400;11.770;2023-02-28T16:24:11;9.90;53.70
14850;DHT22;7517;48.400;11.770;2023-02-28T16:26:40;9.90;53.90
14850;DHT22;7517;48.400;11.770;2023-02-28T16:29:10;9.80;53.90
14850;DHT22;7517;48.400;11.770;2023-02-28T16:31:43;9.80;54.00
14850;DHT22;7517;48.400;11.770;2023-02-28T16:34:10;9.80;54.00
14850;DHT22;7517;48.400;11.770;2023-02-28T16:36:37;9.70;54.10
14850;DHT22;7517;48.400;11.770;2023-02-28T16:39:07;9.70;54.20
14850;DHT22;7517;48.400;11.770;2023-02-28T16:41:34;9.70;54.20
14850;DHT22;7517;48.400;11.770;2023-02-28T16:44:02;9.60;54.00
14850;DHT22;7517;48.400;11.770;2023-02-28T16:46:37;9.60;54.00
14850;DHT22;7517;48.400;11.770;2023-02-28T16:49:07;9.60;54.20
14850;DHT22;7517;48.400;11.770;2023-02-28T16:51:38;9.50;54.20
14850;DHT22;7517;48.400;11.770;2023-02-28T16:54:07;9.50;54.60
14850;DHT22;7517;48.400;11.770;2023-02-28T16:56:34;9.40;54.00
14850;DHT22;7517;48.400;11.770;2023-02-28T16:59:02;9.30;54.00
14850;DHT22;7517;48.400;11.770;2023-02-28T17:01:30;9.30;54.10
14850;DHT22;7517;48.400;11.770;2023-02-28T17:03:57;9.20;54.20